Time;durP1;ratioP1;P1;durP2;ratioP2;P2;SDS_P1;SDS_P2;PMS_P1;PMS_P2;Temp;Humidity;BMP_temperature;BMP_pressure;BME280_temperature;BME280_humidity;BME280_pressure;Samples;Min_cycle;Max_cycle;Signal;HPM_P1;HPM_P2
2022/03/23 00:02:03;;;;;;;48.55;22.85;;;;;;;13.96;64.57;102434.13;7383584;19;20014;-83
2022/03/23 00:04:31;;;;;;;49.60;22.75;;;;;;;13.95;64.50;102432.44;7378975;19;20082;-82
2022/03/23 00:06:59;;;;;;;52.03;23.52;;;;;;;13.96;64.25;102436.78;7381929;19;20018;-82
2022/03/23 00:09:27;;;;;;;51.83;24.17;;;;;;;13.93;64.37;102438.84;7381078;19;20011;-81
2022/03/23 00:12:15;;;;;;;45.95;22.58;;;;;;;13.86;64.91;102443.00;7382597;19;20037;-82
2022/03/23 00:14:43;;;;;;;56.97;24.02;;;;;;;13.86;64.76;102443.84;7385103;19;20014;-82
2022/03/23 00:17:10;;;;;;;51.30;23.55;;;;;;;13.83;64.88;102444.09;7376772;19;19999;-82
2022/03/23 00:19:38;;;;;;;51.53;23.95;;;;;;;13.81;65.14;102446.06;7378955;19;20523;-83
2022/03/23 00:22:05;;;;;;;52.78;24.65;;;;;;;13.79;65.24;102439.22;7380283;19;20320;-82
2022/03/23 00:24:32;;;;;;;47.30;24.33;;;;;;;13.78;65.20;102440.16;7379492;19;20645;-81
2022/03/23 00:27:00;;;;;;;56.20;25.20;;;;;;;13.73;66.42;102437.94;7380498;19;20015;-83
2022/03/23 00:29:27;;;;;;;53.85;24.30;;;;;;;13.71;65.65;102432.75;7381794;19;20023;-82
2022/03/23 00:32:01;;;;;;;53.17;24.13;;;;;;;13.67;65.40;102435.81;7382502;19;20248;-81
2022/03/23 00:34:29;;;;;;;52.90;25.02;;;;;;;13.63;66.29;102437.91;7382003;19;20341;-82
2022/03/23 00:36:56;;;;;;;55.08;24.77;;;;;;;13.56;66.21;102442.03;7382193;19;20479;-81
2022/03/23 00:39:23;;;;;;;51.83;25.23;;;;;;;13.51;66.08;102443.41;7379863;19;20015;-82
2022/03/23 00:42:00;;;;;;;57.80;26.33;;;;;;;13.50;66.81;102442.59;7381351;19;20016;-82
2022/03/23 00:44:28;;;;;;;55.75;26.65;;;;;;;13.47;66.62;102440.19;7385274;19;20007;-81
2022/03/23 00:46:55;;;;;;;55.28;25.65;;;;;;;13.44;66.75;102444.91;7383107;19;20006;-82
2022/03/23 00:49:22;;;;;;;54.30;25.02;;;;;;;13.38;67.09;102438.31;7383001;19;20072;-84
2022/03/23 00:51:56;;;;;;;61.55;26.10;;;;;;;13.27;67.21;102444.53;7384081;19;20019;-83
2022/03/23 00:54:26;;;;;;;58.75;25.92;;;;;;;13.26;67.98;102445.50;7379049;19;20174;-81
2022/03/23 00:56:53;;;;;;;63.42;27.70;;;;;;;13.22;68.22;102436.16;7379737;19;20012;-82
2022/03/23 00:59:22;;;;;;;58.03;27.42;;;;;;;13.20;67.90;102435.47;7381297;19;20387;-81
2022/03/23 01:01:52;;;;;;;58.58;25.70;;;;;;;13.20;68.66;102431.97;7380342;19;20440;-81
2022/03/23 01:04:25;;;;;;;57.42;26.42;;;;;;;13.15;68.51;102437.66;7379846;19;20583;-82
2022/03/23 01:06:53;;;;;;;61.50;26.67;;;;;;;13.15;69.08;102440.31;7381901;19;20022;-81
2022/03/23 01:09:23;;;;;;;61.85;27.92;;;;;;;13.16;68.89;102430.53;7376546;19;20341;-83
2022/03/23 01:11:58;;;;;;;63.75;28.70;;;;;;;13.18;68.38;102440.03;7380519;19;20010;-81
2022/03/23 01:14:26;;;;;;;59.90;29.08;;;;;;;13.19;69.03;102430.28;7379511;19;20044;-82
2022/03/23 01:16:54;;;;;;;64.30;28.10;;;;;;;13.17;68.79;102424.28;7381480;19;20010;-81
2022/03/23 01:19:25;;;;;;;64.07;28.70;;;;;;;13.18;69.69;102425.97;7379939;19;20039;-81
2022/03/23 01:21:59;;;;;;;65.50;28.25;;;;;;;13.16;68.77;102426.09;7376290;19;20364;-81
2022/03/23 01:24:26;;;;;;;65.32;28.95;;;;;;;13.16;69.36;102434.03;7376935;19;20552;-81
2022/03/23 01:26:53;;;;;;;64.50;28.40;;;;;;;13.17;69.25;102427.78;7377032;19;20039;-82
2022/03/23 01:29:20;;;;;;;69.72;28.63;;;;;;;13.13;68.93;102426.38;7376421;19;20014;-82
2022/03/23 01:31:49;;;;;;;68.63;28.85;;;;;;;13.07;69.54;102429.50;7379895;19;20098;-81
2022/03/23 01:34:23;;;;;;;63.92;27.17;;;;;;;13.04;69.01;102427.13;7379701;19;20085;-81
2022/03/23 01:36:50;;;;;;;69.90;29.25;;;;;;;13.02;69.99;102418.47;7378320;19;20066;-82
2022/03/23 01:39:17;;;;;;;74.57;30.73;;;;;;;12.99;69.34;102417.91;7379141;19;20020;-82
2022/03/23 01:41:44;;;;;;;70.35;29.02;;;;;;;12.98;70.17;102416.22;7377526;19;20024;-83
2022/03/23 01:44:13;;;;;;;70.40;29.17;;;;;;;12.98;69.76;102413.56;7379422;19;20026;-81
2022/03/23 01:47:09;;;;;;;66.90;28.73;;;;;;;12.96;69.70;102410.22;7376018;19;20049;-82
2022/03/23 01:49:42;;;;;;;69.90;28.95;;;;;;;12.91;69.61;102410.59;7376929;19;20447;-81
2022/03/23 01:52:11;;;;;;;63.00;27.85;;;;;;;12.86;69.93;102413.63;7379481;19;20022;-82
2022/03/23 01:54:39;;;;;;;65.28;28.90;;;;;;;12.86;69.42;102413.63;7381218;19;20428;-80
2022/03/23 01:57:08;;;;;;;69.47;29.67;;;;;;;12.88;70.25;102423.22;7377932;19;20019;-81
2022/03/23 01:59:36;;;;;;;69.75;30.58;;;;;;;12.86;70.20;102410.16;7379277;19;20037;-81
2022/03/23 02:02:04;;;;;;;66.40;27.90;;;;;;;12.85;70.02;102411.09;7377524;19;20027;-82
2022/03/23 02:04:32;;;;;;;66.60;28.83;;;;;;;12.82;69.51;102414.84;7379155;19;20475;-81
2022/03/23 02:06:59;;;;;;;61.92;28.17;;;;;;;12.80;69.82;102421.22;7381390;19;20011;-82
2022/03/23 02:09:27;;;;;;;69.28;29.25;;;;;;;12.78;70.30;102431.09;7376679;19;20062;-82
2022/03/23 02:12:01;;;;;;;66.93;29.90;;;;;;;12.79;70.27;102432.78;7375273;19;20416;-81
2022/03/23 02:14:28;;;;;;;64.93;28.65;;;;;;;12.77;69.83;102422.31;7381224;19;20014;-82
2022/03/23 02:16:56;;;;;;;66.28;28.77;;;;;;;12.81;70.26;102425.53;7379332;19;20018;-83
2022/03/23 02:19:22;;;;;;;74.70;29.98;;;;;;;12.79;69.97;102422.22;7379376;19;20011;-82
2022/03/23 02:21:55;;;;;;;70.80;29.95;;;;;;;12.79;70.90;102420.41;7375198;19;20018;-83
2022/03/23 02:24:29;;;;;;;72.00;28.65;;;;;;;12.82;70.33;102429.88;7379587;19;20010;-81
2022/03/23 02:26:57;;;;;;;74.88;31.52;;;;;;;12.81;70.15;102428.19;7378803;19;20014;-82
2022/03/23 02:29:34;;;;;;;75.75;30.48;;;;;;;12.75;70.91;102420.75;7385215;19;20701;-82
2022/03/23 02:32:02;;;;;;;64.97;29.15;;;;;;;12.76;70.46;102418.00;7387372;19;20082;-82
2022/03/23 02:34:29;;;;;;;67.03;29.02;;;;;;;12.78;71.10;102417.88;7387733;19;20022;-82
2022/03/23 02:36:57;;;;;;;74.20;30.40;;;;;;;12.78;71.29;102424.00;7386714;19;20027;-81
2022/03/23 02:39:28;;;;;;;69.47;29.95;;;;;;;12.78;70.84;102418.72;7370421;19;20036;-82
2022/03/23 02:41:59;;;;;;;73.70;30.65;;;;;;;12.81;71.07;102418.47;7379082;19;20043;-82
2022/03/23 02:44:27;;;;;;;73.57;29.08;;;;;;;12.79;70.65;102409.84;7388135;19;20070;-81
2022/03/23 02:46:53;;;;;;;61.90;28.48;;;;;;;12.78;71.03;102416.09;7388710;19;20011;-82
2022/03/23 02:49:20;;;;;;;68.63;29.00;;;;;;;12.73;70.48;102417.44;7386291;19;20083;-82
2022/03/23 02:51:50;;;;;;;71.30;30.48;;;;;;;12.73;70.71;102426.19;7387516;19;20357;-82
2022/03/23 03:03:25;;;;;;;76.15;29.23;;;;;;;12.67;70.63;102415.28;7385988;19;20029;-82
2022/03/23 03:05:52;;;;;;;64.95;28.65;;;;;;;12.60;70.41;102419.38;7387299;19;20007;-81
2022/03/23 03:11:05;;;;;;;66.57;27.73;;;;;;;12.53;71.40;102415.59;7383330;19;20401;-83
2022/03/23 03:13:32;;;;;;;71.65;29.08;;;;;;;12.52;70.95;102416.56;7386460;19;20010;-82
2022/03/23 03:16:01;;;;;;;64.90;27.30;;;;;;;12.49;70.52;102408.91;7382844;19;20178;-82
2022/03/23 03:18:33;;;;;;;69.10;29.88;;;;;;;12.47;70.53;102416.09;7384729;19;20023;-83
2022/03/23 03:21:08;;;;;;;62.28;27.42;;;;;;;12.45;71.16;102405.66;7382303;19;20027;-81
2022/03/23 03:23:43;;;;;;;69.32;28.52;;;;;;;12.41;71.00;102405.06;7384916;19;20015;-82
2022/03/23 03:26:14;;;;;;;64.68;27.60;;;;;;;12.39;70.76;102406.19;7379799;19;20021;-81
2022/03/23 03:28:42;;;;;;;66.72;28.02;;;;;;;12.34;71.06;102411.00;7387491;19;20010;-82
2022/03/23 03:31:11;;;;;;;69.95;29.13;;;;;;;12.30;71.44;102406.91;7385035;19;20018;-81
2022/03/23 03:33:39;;;;;;;63.88;28.45;;;;;;;12.27;71.13;102410.66;7382665;19;20035;-83
2022/03/23 03:36:06;;;;;;;64.22;27.75;;;;;;;12.24;70.86;102412.69;7382227;19;20021;-82
2022/03/23 03:38:35;;;;;;;64.63;26.40;;;;;;;12.20;71.31;102417.38;7388111;19;20047;-81
2022/03/23 03:41:03;;;;;;;68.45;28.30;;;;;;;12.19;72.01;102417.50;7378519;19;20016;-81
2022/03/23 03:43:31;;;;;;;65.18;27.08;;;;;;;12.18;71.73;102414.03;7383157;19;20024;-81
2022/03/23 03:45:59;;;;;;;71.10;28.75;;;;;;;12.18;71.43;102413.19;7380818;19;20014;-81
2022/03/23 03:48:27;;;;;;;67.20;27.38;;;;;;;12.17;71.90;102417.63;7385499;19;20014;-81
2022/03/23 03:50:55;;;;;;;66.18;28.10;;;;;;;12.14;72.31;102417.06;7384693;19;20015;-82
2022/03/23 03:53:22;;;;;;;70.35;27.83;;;;;;;12.14;71.83;102417.84;7385382;19;20423;-81
2022/03/23 03:55:55;;;;;;;65.97;27.27;;;;;;;12.21;73.68;102420.84;7380788;19;20442;-81
2022/03/23 03:58:22;;;;;;;72.40;29.73;;;;;;;12.20;72.16;102421.81;7386479;19;20007;-82
2022/03/23 04:00:50;;;;;;;63.25;27.98;;;;;;;12.15;72.18;102416.06;7384207;19;20067;-82
2022/03/23 04:03:17;;;;;;;73.03;27.75;;;;;;;12.11;72.31;102420.75;7383341;19;20066;-81
2022/03/23 04:05:44;;;;;;;66.53;29.98;;;;;;;12.12;72.67;102417.16;7383781;19;20047;-81
2022/03/23 04:08:11;;;;;;;69.43;27.67;;;;;;;12.16;72.96;102423.03;7381128;19;20056;-81
2022/03/23 04:10:39;;;;;;;65.05;28.63;;;;;;;12.16;71.98;102428.28;7378409;19;20010;-81
2022/03/23 04:13:07;;;;;;;73.75;29.98;;;;;;;12.14;72.59;102422.31;7385262;19;20455;-82
2022/03/23 04:15:35;;;;;;;65.90;28.92;;;;;;;12.13;72.26;102418.00;7382338;19;20231;-81
2022/03/23 04:18:03;;;;;;;68.65;28.20;;;;;;;12.10;72.04;102426.16;7385431;19;20352;-81
2022/03/23 04:20:30;;;;;;;68.07;29.02;;;;;;;12.06;72.49;102422.91;7380096;19;20085;-82
2022/03/23 04:22:57;;;;;;;67.88;29.20;;;;;;;12.02;72.03;102429.41;7381685;19;20010;-82
2022/03/23 04:25:24;;;;;;;68.60;28.08;;;;;;;11.99;72.82;102427.84;7378444;19;20070;-81
2022/03/23 04:27:56;;;;;;;68.60;28.73;;;;;;;11.97;72.34;102423.66;7385332;19;20011;-82
2022/03/23 04:30:27;;;;;;;71.57;31.02;;;;;;;11.96;73.12;102425.47;7381312;19;20039;-81
2022/03/23 04:32:55;;;;;;;71.50;29.67;;;;;;;11.94;72.71;102427.38;7384655;19;20024;-81
2022/03/23 04:35:22;;;;;;;65.78;28.48;;;;;;;11.91;72.23;102434.69;7381885;19;20142;-81
2022/03/23 04:37:50;;;;;;;68.90;27.90;;;;;;;11.89;72.51;102444.53;7384429;19;20015;-82
2022/03/23 04:40:18;;;;;;;70.05;29.77;;;;;;;11.84;72.50;102439.59;7377593;19;20115;-81
2022/03/23 04:42:46;;;;;;;71.20;29.25;;;;;;;11.81;72.52;102439.88;7383445;19;20082;-81
2022/03/23 04:45:14;;;;;;;68.20;28.45;;;;;;;11.77;72.64;102443.72;7381043;19;20019;-82
2022/03/23 04:47:43;;;;;;;71.80;30.13;;;;;;;11.76;72.76;102439.38;7382756;19;20488;-82
2022/03/23 04:50:12;;;;;;;75.18;31.05;;;;;;;11.70;73.19;102437.19;7377821;19;20032;-81
2022/03/23 04:52:40;;;;;;;67.00;28.88;;;;;;;11.69;73.20;102445.22;7383999;19;20209;-82
2022/03/23 04:55:09;;;;;;;78.88;30.27;;;;;;;11.64;73.16;102445.56;7374710;19;20014;-82
2022/03/23 04:57:37;;;;;;;73.97;29.90;;;;;;;11.62;73.24;102444.03;7382817;19;20007;-82
2022/03/23 05:00:10;;;;;;;69.88;27.42;;;;;;;11.62;73.38;102444.03;7379269;19;20035;-82
2022/03/23 05:02:45;;;;;;;73.22;28.55;;;;;;;11.61;74.33;102444.97;7379507;19;20014;-82
2022/03/23 05:05:13;;;;;;;70.10;28.70;;;;;;;11.58;74.02;102449.53;7381572;19;20007;-82
2022/03/23 05:07:42;;;;;;;73.32;30.50;;;;;;;11.58;73.14;102452.16;7383018;19;20014;-82
2022/03/23 05:10:12;;;;;;;72.55;31.73;;;;;;;11.57;74.07;102449.66;7380684;19;20342;-82
2022/03/23 05:12:41;;;;;;;70.65;29.92;;;;;;;11.61;74.66;102451.09;7384004;19;20436;-82
2022/03/23 05:15:08;;;;;;;77.38;30.30;;;;;;;11.59;74.27;102445.94;7384010;19;20492;-79
2022/03/23 05:17:36;;;;;;;74.03;31.20;;;;;;;11.64;75.15;102450.84;7381398;19;20559;-82
2022/03/23 05:20:04;;;;;;;74.93;30.60;;;;;;;11.66;74.23;102453.38;7382971;19;20025;-82
2022/03/23 05:22:32;;;;;;;72.38;31.48;;;;;;;11.67;74.79;102455.06;7382604;19;20018;-82
2022/03/23 05:25:00;;;;;;;74.93;30.83;;;;;;;11.65;74.24;102449.06;7376473;19;20042;-82
2022/03/23 05:27:27;;;;;;;83.13;34.33;;;;;;;11.65;74.43;102452.53;7380845;19;20031;-80
2022/03/23 05:29:54;;;;;;;73.25;31.98;;;;;;;11.65;75.16;102451.69;7379966;19;20014;-82
2022/03/23 05:32:23;;;;;;;77.28;30.25;;;;;;;11.62;74.56;102449.31;7378606;19;20014;-81
2022/03/23 05:34:57;;;;;;;78.97;31.00;;;;;;;11.61;74.73;102461.66;7377929;19;20010;-81
2022/03/23 05:37:24;;;;;;;74.22;29.77;;;;;;;11.56;74.48;102462.00;7381249;19;20113;-82
2022/03/23 05:39:51;;;;;;;84.78;32.17;;;;;;;11.54;74.32;102449.88;7377618;19;20562;-82
2022/03/23 05:42:19;;;;;;;82.30;31.38;;;;;;;11.52;74.56;102457.09;7377968;19;20043;-81
2022/03/23 05:44:47;;;;;;;75.20;29.35;;;;;;;11.52;74.64;102460.56;7382239;19;20016;-82
2022/03/23 05:47:14;;;;;;;70.18;31.00;;;;;;;11.50;75.05;102456.34;7380844;19;20043;-81
2022/03/23 05:49:42;;;;;;;75.95;30.50;;;;;;;11.50;74.70;102451.09;7380102;19;20015;-82
2022/03/23 05:52:09;;;;;;;73.65;30.20;;;;;;;11.54;74.82;102461.28;7382226;19;20333;-82
2022/03/23 05:54:35;;;;;;;78.93;30.00;;;;;;;11.57;74.76;102466.31;7378355;19;20385;-82
2022/03/23 05:57:03;;;;;;;71.93;28.63;;;;;;;11.58;74.61;102469.78;7385118;19;20069;-82
2022/03/23 05:59:31;;;;;;;72.72;30.63;;;;;;;11.57;73.96;102468.97;7382537;19;20474;-81
2022/03/23 06:01:59;;;;;;;74.80;31.30;;;;;;;11.58;74.31;102477.69;7379240;19;20015;-81
2022/03/23 06:04:26;;;;;;;74.38;30.75;;;;;;;11.62;74.30;102467.75;7383121;19;20015;-81
2022/03/23 06:06:53;;;;;;;72.15;29.95;;;;;;;11.62;73.70;102476.50;7386372;19;20014;-81
2022/03/23 06:09:20;;;;;;;79.30;30.35;;;;;;;11.58;74.04;102480.31;7386822;19;20087;-82
2022/03/23 06:11:47;;;;;;;78.78;30.85;;;;;;;11.56;73.73;102480.47;7388518;19;20462;-82
2022/03/23 06:14:14;;;;;;;80.85;30.15;;;;;;;11.51;73.97;102479.13;7389090;19;20011;-81
2022/03/23 06:16:41;;;;;;;72.97;29.58;;;;;;;11.46;73.99;102490.03;7387326;19;20014;-82
2022/03/23 06:19:10;;;;;;;82.53;32.15;;;;;;;11.39;74.16;102478.25;7385645;19;20010;-80
2022/03/23 06:21:37;;;;;;;80.05;33.00;;;;;;;11.40;74.72;102481.75;7386632;19;20127;-81
2022/03/23 06:24:05;;;;;;;77.18;32.65;;;;;;;11.42;74.54;102487.75;7385003;19;20062;-83
2022/03/23 06:26:32;;;;;;;80.50;30.33;;;;;;;11.43;74.33;102494.69;7384709;19;20041;-81
2022/03/23 06:28:59;;;;;;;81.43;31.52;;;;;;;11.44;73.95;102489.28;7389305;19;20025;-81
2022/03/23 06:31:26;;;;;;;71.45;30.58;;;;;;;11.40;74.50;102497.56;7384189;19;20078;-81
2022/03/23 06:33:53;;;;;;;73.30;30.00;;;;;;;11.39;74.42;102496.72;7387041;19;20074;-82
2022/03/23 06:36:20;;;;;;;76.55;31.98;;;;;;;11.40;74.31;102493.13;7385274;19;20011;-82
2022/03/23 06:38:48;;;;;;;80.95;32.83;;;;;;;11.42;74.94;102498.28;7387958;19;20031;-81
2022/03/23 06:41:15;;;;;;;78.45;31.60;;;;;;;11.48;74.52;102510.97;7382402;19;20118;-81
2022/03/23 06:43:43;;;;;;;77.22;31.25;;;;;;;11.54;74.80;102515.78;7388293;19;20087;-83
2022/03/23 06:46:10;;;;;;;82.53;32.20;;;;;;;11.56;73.98;102505.97;7388227;19;20023;-82
2022/03/23 06:48:37;;;;;;;77.63;31.67;;;;;;;11.60;75.03;102517.97;7384662;19;20018;-82
2022/03/23 06:51:04;;;;;;;83.82;33.67;;;;;;;11.57;74.23;102513.78;7383192;19;20010;-80
2022/03/23 06:53:32;;;;;;;84.72;35.08;;;;;;;11.60;74.76;102515.31;7384281;19;20014;-81
2022/03/23 06:55:59;;;;;;;83.63;32.47;;;;;;;11.64;74.68;102513.28;7387614;19;20511;-83
2022/03/23 06:58:26;;;;;;;84.43;33.33;;;;;;;11.64;74.59;102515.91;7390269;19;20464;-81
2022/03/23 07:00:54;;;;;;;83.18;34.55;;;;;;;11.68;74.62;102523.50;7385707;19;20022;-83
2022/03/23 07:03:21;;;;;;;85.00;31.35;;;;;;;11.70;73.31;102526.00;7386686;19;20017;-82
2022/03/23 07:05:48;;;;;;;86.75;33.42;;;;;;;11.75;74.36;102515.97;7384169;19;20015;-82
2022/03/23 07:11:03;;;;;;;76.68;31.55;;;;;;;11.79;73.94;102528.78;7381939;19;20089;-82
2022/03/23 07:13:31;;;;;;;87.03;32.85;;;;;;;11.81;73.88;102513.72;7386744;19;20022;-81
2022/03/23 07:15:58;;;;;;;83.45;33.35;;;;;;;11.84;73.23;102536.34;7384796;19;20007;-82
2022/03/23 07:18:25;;;;;;;81.90;32.28;;;;;;;11.94;73.88;102530.25;7389711;19;20022;-81
2022/03/23 07:20:53;;;;;;;83.50;33.00;;;;;;;12.06;73.18;102528.47;7396740;19;20082;-84
2022/03/23 07:23:20;;;;;;;88.38;35.15;;;;;;;12.19;72.56;102531.78;7391809;19;20530;-82
2022/03/23 07:25:47;;;;;;;84.32;35.97;;;;;;;12.36;72.15;102535.75;7388802;19;20014;-83
2022/03/23 07:28:14;;;;;;;76.15;32.90;;;;;;;12.48;71.58;102537.44;7386398;19;20141;-84
2022/03/23 07:30:42;;;;;;;81.88;32.28;;;;;;;12.54;71.18;102552.78;7382757;19;20074;-82
2022/03/23 07:33:10;;;;;;;79.35;34.15;;;;;;;12.65;70.97;102550.09;7387485;19;20017;-82
2022/03/23 07:35:38;;;;;;;75.63;33.13;;;;;;;12.81;70.04;102541.78;7384962;19;20309;-80
2022/03/23 07:38:05;;;;;;;82.78;34.53;;;;;;;13.09;69.37;102535.06;7391353;19;20011;-81
2022/03/23 07:40:31;;;;;;;83.72;34.88;;;;;;;13.41;68.58;102537.72;7388917;19;20015;-82
2022/03/23 07:42:59;;;;;;;81.85;34.13;;;;;;;13.56;67.43;102542.53;7390383;19;20018;-78
2022/03/23 07:45:26;;;;;;;79.95;33.05;;;;;;;13.81;66.93;102549.25;7388103;19;20019;-79
2022/03/23 07:47:53;;;;;;;80.93;34.00;;;;;;;13.96;66.15;102545.28;7382716;19;20102;-80
2022/03/23 07:50:20;;;;;;;78.65;33.22;;;;;;;13.97;65.62;102549.59;7380539;19;20316;-79
2022/03/23 07:52:48;;;;;;;79.90;33.03;;;;;;;14.06;66.46;102556.75;7383092;19;20352;-80
2022/03/23 07:55:15;;;;;;;77.25;31.52;;;;;;;14.37;64.94;102562.91;7377862;19;20010;-79
2022/03/23 07:57:42;;;;;;;76.15;32.38;;;;;;;14.62;63.84;102561.56;7385040;19;20014;-80
2022/03/23 08:00:14;;;;;;;84.25;33.92;;;;;;;14.93;62.91;102567.63;7381593;19;20486;-79
2022/03/23 08:02:42;;;;;;;73.18;31.83;;;;;;;15.12;62.07;102569.44;7383386;19;20007;-79
2022/03/23 08:05:10;;;;;;;79.35;34.33;;;;;;;15.10;62.41;102569.56;7380102;19;20003;-80
2022/03/23 08:07:37;;;;;;;80.93;33.28;;;;;;;15.05;62.36;102570.97;7382894;19;20722;-80
2022/03/23 08:10:04;;;;;;;78.43;35.00;;;;;;;14.85;62.41;102567.44;7383084;19;20098;-78
2022/03/23 08:12:32;;;;;;;82.82;35.17;;;;;;;14.70;64.06;102574.97;7385660;19;20023;-80
2022/03/23 08:14:59;;;;;;;81.18;33.67;;;;;;;14.63;64.14;102571.16;7383773;19;20019;-79
2022/03/23 08:17:27;;;;;;;80.20;33.38;;;;;;;14.54;64.13;102572.00;7382789;19;20088;-79
2022/03/23 08:20:36;;;;;;;79.22;33.40;;;;;;;14.41;64.24;102572.25;7384169;19;20023;-80
2022/03/23 08:22:49;;;;;;;80.05;34.25;;;;;;;14.27;65.23;102564.66;7383838;19;20041;-80
2022/03/23 08:25:16;;;;;;;81.63;34.40;;;;;;;14.29;64.97;102569.78;7380533;19;20447;-81
2022/03/23 08:27:43;;;;;;;79.65;33.33;;;;;;;14.50;64.52;102575.88;7381221;19;20408;-80
2022/03/23 08:30:10;;;;;;;77.55;34.50;;;;;;;14.64;64.04;102570.19;7381653;19;20014;-80
2022/03/23 08:32:37;;;;;;;72.03;33.35;;;;;;;14.74;63.45;102570.22;7380842;19;20014;-79
2022/03/23 08:35:05;;;;;;;78.25;32.72;;;;;;;14.68;63.41;102568.94;7380915;19;20007;-79
2022/03/23 08:37:32;;;;;;;74.75;32.95;;;;;;;14.61;63.75;102569.66;7381607;19;20020;-81
2022/03/23 08:39:59;;;;;;;75.18;33.50;;;;;;;14.55;64.47;102571.03;7376116;19;20015;-80
2022/03/23 08:42:32;;;;;;;79.18;33.90;;;;;;;14.50;64.04;102571.44;7379544;19;20460;-79
2022/03/23 08:44:59;;;;;;;75.55;33.38;;;;;;;14.46;64.36;102567.38;7382002;19;20477;-80
2022/03/23 08:47:27;;;;;;;78.78;34.22;;;;;;;14.43;64.37;102575.56;7379012;19;20532;-80
2022/03/23 08:49:57;;;;;;;76.40;32.67;;;;;;;14.43;64.46;102578.22;7380337;19;20015;-79
2022/03/23 08:52:32;;;;;;;78.38;33.78;;;;;;;14.44;64.03;102579.06;7386096;19;20014;-80
2022/03/23 08:54:59;;;;;;;76.05;32.42;;;;;;;14.46;64.84;102583.28;7378930;19;20074;-80
2022/03/23 08:57:26;;;;;;;75.53;32.13;;;;;;;14.52;63.90;102580.09;7382222;19;20023;-79
2022/03/23 08:59:53;;;;;;;75.45;33.17;;;;;;;14.57;63.17;102579.69;7382609;19;20015;-80
2022/03/23 09:02:21;;;;;;;71.53;31.35;;;;;;;14.56;62.72;102578.00;7374863;19;20006;-78
2022/03/23 09:04:52;;;;;;;74.30;30.93;;;;;;;14.55;62.76;102577.16;7381135;19;20029;-79
2022/03/23 09:07:19;;;;;;;69.18;30.48;;;;;;;14.59;63.02;102584.81;7381814;19;20078;-80
2022/03/23 09:09:46;;;;;;;70.18;30.40;;;;;;;14.66;62.65;102578.88;7377483;19;20006;-81
2022/03/23 09:12:13;;;;;;;75.07;29.95;;;;;;;14.75;62.16;102579.84;7385445;19;20471;-80
2022/03/23 09:14:40;;;;;;;71.20;31.83;;;;;;;14.85;61.88;102581.53;7381332;19;20043;-80
2022/03/23 09:17:07;;;;;;;71.25;31.27;;;;;;;14.90;61.19;102584.63;7383771;19;20018;-80
2022/03/23 09:19:38;;;;;;;77.28;32.45;;;;;;;14.97;64.18;102580.47;7378739;19;20073;-80
2022/03/23 09:22:06;;;;;;;67.63;30.73;;;;;;;15.07;63.98;102592.88;7381881;19;20491;-80
2022/03/23 09:24:34;;;;;;;69.75;30.70;;;;;;;15.15;61.71;102587.72;7377897;19;20007;-79
2022/03/23 09:27:01;;;;;;;72.95;29.10;;;;;;;15.16;60.63;102584.09;7377322;19;22916;-79
2022/03/23 09:29:28;;;;;;;66.07;28.55;;;;;;;15.22;60.27;102588.84;7379314;19;20025;-80
2022/03/23 09:31:55;;;;;;;70.18;30.77;;;;;;;15.28;59.49;102590.94;7379431;19;20031;-81
2022/03/23 09:34:31;;;;;;;76.72;29.95;;;;;;;15.36;60.08;102588.41;7380736;19;20516;-80
2022/03/23 09:39:53;;;;;;;69.35;28.42;;;;;;;15.57;60.19;102590.94;7382580;19;20018;-80
2022/03/23 09:42:22;;;;;;;66.18;28.67;;;;;;;15.60;57.74;102596.78;7387081;19;20446;-81
2022/03/23 09:44:59;;;;;;;67.47;28.60;;;;;;;15.70;57.96;102594.13;7386348;19;20006;-80
2022/03/23 09:47:26;;;;;;;69.70;29.20;;;;;;;15.80;56.97;102585.16;7387614;19;20465;-79
2022/03/23 09:49:53;;;;;;;67.90;28.65;;;;;;;15.89;56.24;102579.97;7391292;19;20070;-80
2022/03/23 09:52:22;;;;;;;60.05;25.90;;;;;;;15.93;56.39;102586.69;7390895;19;20006;-81
2022/03/23 09:54:56;;;;;;;71.30;29.92;;;;;;;15.98;57.83;102585.25;7387507;19;20084;-81
2022/03/23 09:57:23;;;;;;;65.70;27.83;;;;;;;16.08;55.96;102590.53;7389510;19;20037;-78
2022/03/23 09:59:50;;;;;;;74.03;28.67;;;;;;;16.16;57.88;102577.34;7385061;19;20011;-80
2022/03/23 10:02:41;;;;;;;63.97;28.33;;;;;;;16.27;56.15;102582.50;7387999;19;20014;-78
2022/03/23 10:05:22;;;;;;;66.65;27.90;;;;;;;16.34;55.54;102591.56;7392266;19;20021;-80
2022/03/23 10:08:07;;;;;;;69.18;27.95;;;;;;;16.43;55.45;102592.50;7395399;19;20659;-80
2022/03/23 10:10:53;;;;;;;70.18;27.17;;;;;;;16.51;54.69;102592.56;7379918;19;20562;-80
2022/03/23 10:13:42;;;;;;;68.30;28.85;;;;;;;16.56;54.62;102588.50;7388716;19;20098;-81
2022/03/23 10:17:04;;;;;;;53.17;25.00;;;;;;;16.66;54.08;102586.66;7388305;19;20681;-79
2022/03/23 10:19:31;;;;;;;54.58;23.73;;;;;;;16.74;53.13;102591.22;7385605;19;20018;-79
2022/03/23 10:22:09;;;;;;;59.17;23.35;;;;;;;16.81;51.61;102594.13;7390714;19;20011;-80
2022/03/23 10:24:37;;;;;;;48.05;23.30;;;;;;;16.87;51.50;102591.69;7383765;19;20014;-80
2022/03/23 10:27:12;;;;;;;55.03;23.98;;;;;;;16.99;53.34;102592.31;7389969;19;20480;-79
2022/03/23 10:29:42;;;;;;;54.47;22.35;;;;;;;17.08;51.16;102594.91;7384823;19;20775;-80
2022/03/23 10:32:10;;;;;;;55.78;20.95;;;;;;;17.14;48.83;102593.47;7385527;19;20353;-80
2022/03/23 10:34:49;;;;;;;48.05;21.25;;;;;;;17.21;48.03;102589.22;7387113;19;20018;-80
2022/03/23 10:37:29;;;;;;;47.25;19.90;;;;;;;17.26;47.04;102586.09;7392468;19;20037;-80
2022/03/23 10:39:59;;;;;;;44.83;20.38;;;;;;;17.30;48.25;102585.63;7382501;19;20010;-80
2022/03/23 10:42:33;;;;;;;45.17;20.25;;;;;;;17.36;47.82;102579.72;7385552;19;20018;-81
2022/03/23 10:45:15;;;;;;;49.33;20.65;;;;;;;17.42;49.05;102587.06;7391707;19;20038;-79
2022/03/23 10:47:44;;;;;;;44.88;18.55;;;;;;;17.51;46.55;102582.66;7389257;19;20335;-79
2022/03/23 10:50:19;;;;;;;51.03;20.40;;;;;;;17.53;45.56;102578.00;7383994;19;20007;-81
2022/03/23 10:52:52;;;;;;;46.45;19.42;;;;;;;17.54;44.89;102569.84;7385693;19;20033;-80
2022/03/23 10:55:20;;;;;;;44.97;19.23;;;;;;;17.59;45.68;102584.53;7387101;19;20010;-80
2022/03/23 10:57:51;;;;;;;45.10;17.98;;;;;;;17.53;42.49;102578.00;7386867;19;20014;-81
2022/03/23 11:00:30;;;;;;;42.60;17.52;;;;;;;17.56;42.54;102580.34;7384404;19;20011;-79
2022/03/23 11:03:00;;;;;;;47.90;19.42;;;;;;;17.62;44.63;102582.44;7387668;19;20082;-79
2022/03/23 11:05:32;;;;;;;39.80;18.20;;;;;;;17.66;43.77;102577.63;7388677;19;20011;-80
2022/03/23 11:08:10;;;;;;;34.28;14.65;;;;;;;17.71;41.47;102573.50;7387312;19;20011;-80
2022/03/23 11:16:24;;;;;;;28.52;12.52;;;;;;;17.80;39.04;102566.41;7385775;19;20018;-80
2022/03/23 11:19:06;;;;;;;33.88;14.77;;;;;;;17.85;40.64;102564.94;7382729;19;20074;-80
2022/03/23 11:21:33;;;;;;;23.52;10.55;;;;;;;17.86;37.17;102571.94;7383874;19;20010;-80
2022/03/23 11:24:00;;;;;;;28.25;12.45;;;;;;;17.89;37.61;102558.28;7384146;19;20047;-80
2022/03/23 11:26:28;;;;;;;23.63;9.77;;;;;;;17.93;36.52;102556.16;7383472;19;20122;-81
2022/03/23 11:28:56;;;;;;;25.05;9.38;;;;;;;17.98;36.25;102561.84;7383068;19;20038;-81
2022/03/23 11:31:24;;;;;;;23.60;10.30;;;;;;;18.00;36.88;102551.88;7381213;19;20014;-79
2022/03/23 11:33:54;;;;;;;27.45;10.85;;;;;;;18.09;36.90;102558.06;7384390;19;20049;-80
2022/03/23 11:36:27;;;;;;;23.90;10.40;;;;;;;18.14;35.91;102553.09;7382696;19;20376;-79
2022/03/23 11:38:59;;;;;;;26.65;12.48;;;;;;;18.16;34.61;102554.63;7387834;19;20014;-81
2022/03/23 11:41:26;;;;;;;27.73;12.63;;;;;;;18.20;33.90;102552.44;7381922;19;20118;-79
2022/03/23 11:43:54;;;;;;;22.30;10.25;;;;;;;18.23;34.00;102550.31;7384472;19;20006;-80